Koznitza — 9HA4119 — position and weather

sailwx.info

Track history (hours):
 
Tides and Currents Weather Stations Pressure Air Temp Water Temp Dewpoint Dewpoint Depression Visibility Wind Speed Wind Dir Waves Ship Positions

Koznitza

Last reported at 2018-Feb-23 04:10 UTC. Time now 2018-Feb-24 00:56 UTC.
Position N 46°15' E 030°54'.

Length 180 m; draft 10.2 m.

Type: Cargo ship. MMSI: 249129000.

Date/timePositionNaut miles runAvg speedWind from/ knotsBaromVisibWave heightAir tempDewpointWater temp
2018-Feb-23 04:10N 46°15' E 030°54'710.4
2018-Feb-23 03:28N 46°22' E 030°55'511.0
2018-Feb-23 02:59N 46°27' E 030°56'510.2
2018-Feb-23 02:30N 46°32' E 030°55'5 9.2
2018-Feb-23 01:58N 46°34' E 031°02'31 9.0
2018-Feb-22 22:31N 46°36' E 031°47'4 9.1
2018-Feb-22 22:03N 46°37' E 031°53'0 8.9
2018-Feb-22 22:00N 46°38' E 031°54'4 8.6
2018-Feb-22 21:30N 46°42' E 031°56'4 7.3
2018-Feb-22 21:00N 46°45' E 031°54'4 7.6
2018-Feb-22 20:30N 46°49' E 031°54'4 7.1
2018-Feb-22 20:00N 46°51' E 031°57'1 1.6
2018-Feb-22 19:30N 46°51' E 031°59'0 0.4
2018-Feb-22 19:00N 46°51' E 031°58'0 0.0
2018-Feb-22 18:27N 46°51' E 031°58'0 0.0
2018-Feb-22 17:58N 46°51' E 031°58'0 0.0
2018-Feb-22 17:27N 46°51' E 031°58'0 0.0
2018-Feb-22 16:58N 46°51' E 031°58'0 0.0
2018-Feb-22 16:30N 46°51' E 031°58'0 0.0
2018-Feb-22 16:01N 46°51' E 031°58'0 0.0
2018-Feb-22 15:28N 46°51' E 031°58'0 0.0
2018-Feb-22 14:58N 46°51' E 031°58'0 0.0
2018-Feb-22 14:25N 46°51' E 031°58'0 0.0
2018-Feb-22 13:55N 46°51' E 031°58'0 0.0
2018-Feb-22 13:31N 46°51' E 031°58'0 0.0
2018-Feb-22 11:39N 46°51' E 031°58'0 0.0
2018-Feb-22 11:28N 46°51' E 031°58'0 0.0
2018-Feb-22 11:00N 46°51' E 031°58'0 0.0
2018-Feb-22 10:31N 46°51' E 031°58'0 0.0
2018-Feb-22 09:58N 46°51' E 031°58'0 0.0
2018-Feb-22 09:31N 46°51' E 031°58'0 0.0
2018-Feb-22 09:01N 46°51' E 031°58'0 0.0
2018-Feb-22 08:28N 46°51' E 031°58'0 0.0
2018-Feb-22 08:01N 46°51' E 031°58'0 0.0
2018-Feb-22 07:30N 46°51' E 031°58'0 0.0
2018-Feb-22 07:00N 46°51' E 031°58'0 0.0
2018-Feb-22 06:31N 46°51' E 031°58'0 0.0
2018-Feb-22 06:01N 46°51' E 031°58'0 0.0
2018-Feb-22 05:30N 46°51' E 031°59'0 0.0
2018-Feb-22 05:00N 46°51' E 031°59'0 0.0
2018-Feb-22 04:30N 46°51' E 031°59'0 0.0
2018-Feb-22 04:00N 46°51' E 031°59'0 0.0
2018-Feb-22 03:31N 46°51' E 031°59'0 0.1
2018-Feb-22 03:00N 46°51' E 031°59'0 0.0
2018-Feb-22 02:30N 46°51' E 031°59'0 0.0
2018-Feb-22 02:00N 46°51' E 031°59'0 0.0
2018-Feb-22 01:31N 46°51' E 031°59'0 0.0
2018-Feb-22 01:00N 46°51' E 031°59'0 0.0
2018-Feb-22 00:30N 46°51' E 031°59'0 0.0
2018-Feb-22 00:00N 46°51' E 031°59'0 0.0
2018-Feb-21 23:30N 46°51' E 031°59'0 0.0
2018-Feb-21 23:00N 46°51' E 031°59'0 0.0
2018-Feb-21 22:30N 46°51' E 031°59'0 0.0
2018-Feb-21 22:00N 46°51' E 031°59'0 0.0
2018-Feb-21 21:30N 46°51' E 031°59'0 0.0
2018-Feb-21 21:00N 46°51' E 031°59'0 0.0
2018-Feb-21 20:30N 46°51' E 031°59'0 0.0
2018-Feb-21 20:00N 46°51' E 031°59'0 0.0
2018-Feb-21 19:30N 46°51' E 031°59'0 0.0
2018-Feb-21 19:00N 46°51' E 031°59'0 0.0
2018-Feb-21 18:30N 46°51' E 031°59'0 0.0
2018-Feb-21 18:00N 46°51' E 031°59'0 0.0
2018-Feb-21 17:30N 46°51' E 031°59'0 0.0
2018-Feb-21 17:00N 46°51' E 031°59'0 0.0
2018-Feb-21 16:30N 46°51' E 031°59'0 0.0
2018-Feb-21 16:00N 46°51' E 031°59'0 0.0
2018-Feb-21 15:30N 46°51' E 031°59'0 0.0
2018-Feb-21 15:00N 46°51' E 031°59'0 0.0
2018-Feb-21 14:30N 46°51' E 031°59'0 0.0
2018-Feb-21 13:57N 46°51' E 031°59'0 0.0
2018-Feb-21 13:30N 46°51' E 031°59'0 0.0
2018-Feb-21 13:00N 46°51' E 031°59'0 0.0
2018-Feb-21 12:30N 46°51' E 031°59'0 0.0
2018-Feb-21 12:00N 46°51' E 031°59'0 0.0
2018-Feb-21 11:30N 46°51' E 031°59'0 0.0
2018-Feb-21 11:00N 46°51' E 031°59'0 0.0
2018-Feb-21 10:30N 46°51' E 031°59'0 0.0
2018-Feb-21 10:00N 46°51' E 031°59'0 0.0
2018-Feb-21 09:30N 46°51' E 031°59'0 0.0
2018-Feb-21 09:00N 46°51' E 031°59'0 0.0
2018-Feb-21 08:30N 46°51' E 031°59'0 0.0
2018-Feb-21 08:00N 46°51' E 031°59'0 0.0
2018-Feb-21 07:30N 46°51' E 031°59'0 0.0
2018-Feb-21 07:00N 46°51' E 031°59'0 0.0
2018-Feb-21 06:30N 46°51' E 031°59'0 0.0
2018-Feb-21 06:00N 46°51' E 031°59'0 0.0
2018-Feb-21 05:30N 46°51' E 031°59'0 0.0
2018-Feb-21 05:00N 46°51' E 031°59'0 0.0
2018-Feb-21 04:30N 46°51' E 031°59'0 0.0
2018-Feb-21 04:00N 46°51' E 031°59'0 0.0
2018-Feb-21 03:30N 46°51' E 031°59'0 0.0
2018-Feb-21 03:00N 46°51' E 031°59'0 0.0
2018-Feb-21 02:30N 46°51' E 031°59'0 0.0
2018-Feb-21 02:00N 46°51' E 031°59'0 0.0
2018-Feb-21 01:30N 46°51' E 031°59'0 0.0
2018-Feb-21 01:00N 46°51' E 031°59'0 0.0
2018-Feb-21 00:30N 46°51' E 031°59'0 0.0
2018-Feb-21 00:00N 46°51' E 031°59'0 0.0
2018-Feb-20 23:30N 46°51' E 031°59'0 0.0
2018-Feb-20 23:00N 46°51' E 031°59'0 0.0
2018-Feb-20 22:30N 46°51' E 031°59'0 0.0
2018-Feb-20 22:00N 46°51' E 031°59'0 0.0
2018-Feb-20 21:30N 46°51' E 031°59'0 0.0
2018-Feb-20 21:00N 46°51' E 031°59'0 0.0
2018-Feb-20 20:30N 46°51' E 031°59'0 0.0
2018-Feb-20 20:00N 46°51' E 031°59'0 0.0
2018-Feb-20 19:30N 46°51' E 031°59'0 0.0
2018-Feb-20 19:00N 46°51' E 031°59'0 0.0
2018-Feb-20 18:30N 46°51' E 031°59'0 0.0
2018-Feb-20 18:00N 46°51' E 031°59'0 0.0
2018-Feb-20 17:30N 46°51' E 031°59'0 0.0
2018-Feb-20 17:00N 46°51' E 031°59'0 0.0
2018-Feb-20 16:30N 46°51' E 031°59'0 0.0
2018-Feb-20 16:00N 46°51' E 031°59'0 0.0
2018-Feb-20 15:30N 46°51' E 031°59'0 0.0
2018-Feb-20 15:00N 46°51' E 031°59'0 0.0
2018-Feb-20 14:30N 46°51' E 031°59'0 0.0
2018-Feb-20 13:57N 46°51' E 031°59'0 0.0
2018-Feb-20 13:27N 46°51' E 031°59'0 0.0
2018-Feb-20 12:57N 46°51' E 031°59'0 0.0
2018-Feb-20 12:27N 46°51' E 031°59'0 0.0
2018-Feb-20 12:00N 46°51' E 031°59'0 0.0
2018-Feb-20 11:27N 46°51' E 031°59'0 0.0
2018-Feb-20 10:57N 46°51' E 031°59'0 0.0
2018-Feb-20 10:27N 46°51' E 031°59'0 0.0
2018-Feb-20 09:51N 46°51' E 031°59'0 0.0
2018-Feb-20 09:30N 46°51' E 031°59'0 0.0
2018-Feb-20 08:57N 46°51' E 031°59'0 0.0
2018-Feb-20 08:30N 46°51' E 031°59'0 0.0
2018-Feb-20 08:00N 46°51' E 031°59'0 0.0
2018-Feb-20 07:30N 46°51' E 031°59'0 0.0
2018-Feb-20 07:00N 46°51' E 031°59'0 0.0
2018-Feb-20 06:30N 46°51' E 031°59'0 0.0
2018-Feb-20 06:00N 46°51' E 031°59'0 0.0
2018-Feb-20 05:30N 46°51' E 031°59'0 0.0
2018-Feb-20 05:00N 46°51' E 031°59'0 0.0
2018-Feb-20 04:30N 46°51' E 031°59'0 0.0
2018-Feb-20 03:57N 46°51' E 031°59'0 0.0
2018-Feb-20 03:30N 46°51' E 031°59'0 0.0
2018-Feb-20 03:00N 46°51' E 031°59'0 0.0
2018-Feb-20 02:30N 46°51' E 031°59'0 0.0
2018-Feb-20 02:00N 46°51' E 031°59'0 0.0
2018-Feb-20 01:30N 46°51' E 031°59'0 0.0
2018-Feb-20 01:00N 46°51' E 031°59'0 0.0
2018-Feb-20 00:30N 46°51' E 031°59'0 0.0
2018-Feb-20 00:00N 46°51' E 031°59'0 0.0
2018-Feb-19 23:30N 46°51' E 031°59'0 0.0
2018-Feb-19 23:00N 46°51' E 031°59'0 0.0
2018-Feb-19 22:30N 46°51' E 031°59'0 0.0
2018-Feb-19 21:57N 46°51' E 031°59'0 0.0
2018-Feb-19 21:24N 46°51' E 031°59'0 0.0
2018-Feb-19 21:00N 46°51' E 031°59'0 0.0
2018-Feb-19 20:30N 46°51' E 031°59'0 0.0
2018-Feb-19 20:00N 46°51' E 031°59'0 0.0
2018-Feb-19 19:30N 46°51' E 031°59'0 0.0
2018-Feb-19 19:00N 46°51' E 031°59'0 0.0
2018-Feb-19 18:30N 46°51' E 031°59'0 0.0
2018-Feb-19 18:00N 46°51' E 031°59'0 0.0
2018-Feb-19 17:30N 46°51' E 031°59'0 0.0
2018-Feb-19 17:00N 46°51' E 031°59'0 0.0
2018-Feb-19 16:30N 46°51' E 031°59'0 0.0
2018-Feb-19 16:00N 46°51' E 031°59'0 0.0
2018-Feb-19 15:30N 46°51' E 031°59'0 0.0
2018-Feb-19 15:00N 46°51' E 031°59'0 0.0
2018-Feb-19 14:30N 46°51' E 031°59'0 0.0
2018-Feb-19 14:00N 46°51' E 031°59'0 0.0
2018-Feb-19 13:30N 46°51' E 031°59'0 0.0
2018-Feb-19 13:00N 46°51' E 031°59'0 0.0
2018-Feb-19 12:30N 46°51' E 031°59'0 0.0
2018-Feb-19 12:00N 46°51' E 031°59'0 0.0
2018-Feb-19 11:30N 46°51' E 031°59'0 0.0
2018-Feb-19 11:00N 46°51' E 031°59'0 0.0
2018-Feb-19 10:30N 46°51' E 031°59'0 0.0
2018-Feb-19 10:00N 46°51' E 031°59'0 0.0
2018-Feb-19 09:30N 46°51' E 031°59'0 0.0
2018-Feb-19 09:00N 46°51' E 031°59'0 0.0
2018-Feb-19 08:24N 46°51' E 031°59'0 0.0
2018-Feb-19 08:00N 46°51' E 031°59'0 0.0
2018-Feb-19 07:30N 46°51' E 031°59'0 0.0
2018-Feb-19 07:00N 46°51' E 031°59'0 0.0
2018-Feb-19 06:30N 46°51' E 031°59'0 0.0
2018-Feb-19 06:00N 46°51' E 031°59'0 0.0
2018-Feb-19 05:30N 46°51' E 031°59'0 0.0
2018-Feb-19 05:00N 46°51' E 031°59'0 0.0
2018-Feb-19 04:30N 46°51' E 031°59'0 0.0
2018-Feb-19 04:00N 46°51' E 031°59'0 0.0
2018-Feb-19 03:30N 46°51' E 031°59'0 0.0
2018-Feb-19 03:00N 46°51' E 031°59'0 0.0
2018-Feb-19 02:30N 46°51' E 031°59'0 0.0
2018-Feb-19 02:00N 46°51' E 031°59'0 0.0
2018-Feb-19 01:30N 46°51' E 031°59'0 0.0
2018-Feb-19 01:00N 46°51' E 031°59'0 0.0
2018-Feb-19 00:30N 46°51' E 031°59'0 0.0
2018-Feb-19 00:00N 46°51' E 031°59'0 0.0
2018-Feb-18 23:30N 46°51' E 031°59'0 0.0
2018-Feb-18 23:00N 46°51' E 031°59'0 0.7
2018-Feb-18 22:30N 46°52' E 031°58'0 0.0
2018-Feb-18 22:00N 46°52' E 031°58'0 0.0
2018-Feb-18 21:30N 46°52' E 031°58'0 0.0
2018-Feb-18 21:00N 46°52' E 031°58'0 0.0
2018-Feb-18 20:30N 46°52' E 031°58'0 0.0
2018-Feb-18 20:00N 46°52' E 031°58'0 0.0
2018-Feb-18 19:30N 46°52' E 031°58'0 0.0
2018-Feb-18 19:00N 46°52' E 031°58'0 0.1
2018-Feb-18 18:29N 46°52' E 031°58'0 0.1
2018-Feb-18 18:00N 46°51' E 031°58'0 0.1
2018-Feb-18 17:30N 46°51' E 031°58'0 0.0
2018-Feb-18 16:59N 46°51' E 031°58'0 0.1
2018-Feb-18 16:30N 46°51' E 031°58'0 0.1
2018-Feb-18 16:00N 46°52' E 031°58'0 0.3
2018-Feb-18 15:30N 46°52' E 031°58'2 4.3
2018-Feb-18 15:00N 46°50' E 031°56'4 8.1
2018-Feb-18 14:30N 46°46' E 031°53'510.5
2018-Feb-18 14:00N 46°41' E 031°56'510.5
2018-Feb-18 13:30N 46°37' E 031°51'611.4
2018-Feb-18 13:00N 46°36' E 031°44'811.3
2018-Feb-18 12:20N 46°35' E 031°33'2510.9
2018-Feb-18 10:04N 46°33' E 030°57'111.9
2018-Feb-18 10:00N 46°32' E 030°57'10 1.7
2018-Feb-18 04:26N 46°24' E 031°05'0 0.0
2018-Feb-18 01:29N 46°24' E 031°05'0 0.0
2018-Feb-18 00:29N 46°24' E 031°05'0 0.0
2018-Feb-17 23:23N 46°24' E 031°05'0 0.0
2018-Feb-17 21:56N 46°24' E 031°05'0 0.0
2018-Feb-17 21:26N 46°24' E 031°05'0 0.0
2018-Feb-17 19:17N 46°24' E 031°05'0 0.0
2018-Feb-17 17:44N 46°24' E 031°05'0 0.0
2018-Feb-17 06:05N 46°24' E 031°05'0 0.1
2018-Feb-17 05:53N 46°24' E 031°05'0 0.0
2018-Feb-16 03:38N 46°24' E 031°05'6 0.1
2018-Feb-14 08:06N 46°19' E 031°06'  
Track history (hours):
 
Tides and Currents Weather Stations Pressure Air Temp Water Temp Dewpoint Dewpoint Depression Visibility Wind Speed Wind Dir Waves Ship Positions

Koznitza

Last reported at 2018-Feb-23 04:10 UTC. Time now 2018-Feb-24 00:56 UTC.
Position N 46°15' E 030°54'.

Length 180 m; draft 10.2 m.

Type: Cargo ship. MMSI: 249129000.

Date/timePositionNaut miles runAvg speedWind from/ knotsBaromVisibWave heightAir tempDewpointWater temp
2018-Feb-23 04:10N 46°15' E 030°54'710.4
2018-Feb-23 03:28N 46°22' E 030°55'511.0
2018-Feb-23 02:59N 46°27' E 030°56'510.2
2018-Feb-23 02:30N 46°32' E 030°55'5 9.2
2018-Feb-23 01:58N 46°34' E 031°02'31 9.0
2018-Feb-22 22:31N 46°36' E 031°47'4 9.1
2018-Feb-22 22:03N 46°37' E 031°53'0 8.9
2018-Feb-22 22:00N 46°38' E 031°54'4 8.6
2018-Feb-22 21:30N 46°42' E 031°56'4 7.3
2018-Feb-22 21:00N 46°45' E 031°54'4 7.6
2018-Feb-22 20:30N 46°49' E 031°54'4 7.1
2018-Feb-22 20:00N 46°51' E 031°57'1 1.6
2018-Feb-22 19:30N 46°51' E 031°59'0 0.4
2018-Feb-22 19:00N 46°51' E 031°58'0 0.0
2018-Feb-22 18:27N 46°51' E 031°58'0 0.0
2018-Feb-22 17:58N 46°51' E 031°58'0 0.0
2018-Feb-22 17:27N 46°51' E 031°58'0 0.0
2018-Feb-22 16:58N 46°51' E 031°58'0 0.0
2018-Feb-22 16:30N 46°51' E 031°58'0 0.0
2018-Feb-22 16:01N 46°51' E 031°58'0 0.0
2018-Feb-22 15:28N 46°51' E 031°58'0 0.0
2018-Feb-22 14:58N 46°51' E 031°58'0 0.0
2018-Feb-22 14:25N 46°51' E 031°58'0 0.0
2018-Feb-22 13:55N 46°51' E 031°58'0 0.0
2018-Feb-22 13:31N 46°51' E 031°58'0 0.0
2018-Feb-22 11:39N 46°51' E 031°58'0 0.0
2018-Feb-22 11:28N 46°51' E 031°58'0 0.0
2018-Feb-22 11:00N 46°51' E 031°58'0 0.0
2018-Feb-22 10:31N 46°51' E 031°58'0 0.0
2018-Feb-22 09:58N 46°51' E 031°58'0 0.0
2018-Feb-22 09:31N 46°51' E 031°58'0 0.0
2018-Feb-22 09:01N 46°51' E 031°58'0 0.0
2018-Feb-22 08:28N 46°51' E 031°58'0 0.0
2018-Feb-22 08:01N 46°51' E 031°58'0 0.0
2018-Feb-22 07:30N 46°51' E 031°58'0 0.0
2018-Feb-22 07:00N 46°51' E 031°58'0 0.0
2018-Feb-22 06:31N 46°51' E 031°58'0 0.0
2018-Feb-22 06:01N 46°51' E 031°58'0 0.0
2018-Feb-22 05:30N 46°51' E 031°59'0 0.0
2018-Feb-22 05:00N 46°51' E 031°59'0 0.0
2018-Feb-22 04:30N 46°51' E 031°59'0 0.0
2018-Feb-22 04:00N 46°51' E 031°59'0 0.0
2018-Feb-22 03:31N 46°51' E 031°59'0 0.1
2018-Feb-22 03:00N 46°51' E 031°59'0 0.0
2018-Feb-22 02:30N 46°51' E 031°59'0 0.0
2018-Feb-22 02:00N 46°51' E 031°59'0 0.0
2018-Feb-22 01:31N 46°51' E 031°59'0 0.0
2018-Feb-22 01:00N 46°51' E 031°59'0 0.0
2018-Feb-22 00:30N 46°51' E 031°59'0 0.0
2018-Feb-22 00:00N 46°51' E 031°59'0 0.0
2018-Feb-21 23:30N 46°51' E 031°59'0 0.0
2018-Feb-21 23:00N 46°51' E 031°59'0 0.0
2018-Feb-21 22:30N 46°51' E 031°59'0 0.0
2018-Feb-21 22:00N 46°51' E 031°59'0 0.0
2018-Feb-21 21:30N 46°51' E 031°59'0 0.0
2018-Feb-21 21:00N 46°51' E 031°59'0 0.0
2018-Feb-21 20:30N 46°51' E 031°59'0 0.0
2018-Feb-21 20:00N 46°51' E 031°59'0 0.0
2018-Feb-21 19:30N 46°51' E 031°59'0 0.0
2018-Feb-21 19:00N 46°51' E 031°59'0 0.0
2018-Feb-21 18:30N 46°51' E 031°59'0 0.0
2018-Feb-21 18:00N 46°51' E 031°59'0 0.0
2018-Feb-21 17:30N 46°51' E 031°59'0 0.0
2018-Feb-21 17:00N 46°51' E 031°59'0 0.0
2018-Feb-21 16:30N 46°51' E 031°59'0 0.0
2018-Feb-21 16:00N 46°51' E 031°59'0 0.0
2018-Feb-21 15:30N 46°51' E 031°59'0 0.0
2018-Feb-21 15:00N 46°51' E 031°59'0 0.0
2018-Feb-21 14:30N 46°51' E 031°59'0 0.0
2018-Feb-21 13:57N 46°51' E 031°59'0 0.0
2018-Feb-21 13:30N 46°51' E 031°59'0 0.0
2018-Feb-21 13:00N 46°51' E 031°59'0 0.0
2018-Feb-21 12:30N 46°51' E 031°59'0 0.0
2018-Feb-21 12:00N 46°51' E 031°59'0 0.0
2018-Feb-21 11:30N 46°51' E 031°59'0 0.0
2018-Feb-21 11:00N 46°51' E 031°59'0 0.0
2018-Feb-21 10:30N 46°51' E 031°59'0 0.0
2018-Feb-21 10:00N 46°51' E 031°59'0 0.0
2018-Feb-21 09:30N 46°51' E 031°59'0 0.0
2018-Feb-21 09:00N 46°51' E 031°59'0 0.0
2018-Feb-21 08:30N 46°51' E 031°59'0 0.0
2018-Feb-21 08:00N 46°51' E 031°59'0 0.0
2018-Feb-21 07:30N 46°51' E 031°59'0 0.0
2018-Feb-21 07:00N 46°51' E 031°59'0 0.0
2018-Feb-21 06:30N 46°51' E 031°59'0 0.0
2018-Feb-21 06:00N 46°51' E 031°59'0 0.0
2018-Feb-21 05:30N 46°51' E 031°59'0 0.0
2018-Feb-21 05:00N 46°51' E 031°59'0 0.0
2018-Feb-21 04:30N 46°51' E 031°59'0 0.0
2018-Feb-21 04:00N 46°51' E 031°59'0 0.0
2018-Feb-21 03:30N 46°51' E 031°59'0 0.0
2018-Feb-21 03:00N 46°51' E 031°59'0 0.0
2018-Feb-21 02:30N 46°51' E 031°59'0 0.0
2018-Feb-21 02:00N 46°51' E 031°59'0 0.0
2018-Feb-21 01:30N 46°51' E 031°59'0 0.0
2018-Feb-21 01:00N 46°51' E 031°59'0 0.0
2018-Feb-21 00:30N 46°51' E 031°59'0 0.0
2018-Feb-21 00:00N 46°51' E 031°59'0 0.0
2018-Feb-20 23:30N 46°51' E 031°59'0 0.0
2018-Feb-20 23:00N 46°51' E 031°59'0 0.0
2018-Feb-20 22:30N 46°51' E 031°59'0 0.0
2018-Feb-20 22:00N 46°51' E 031°59'0 0.0
2018-Feb-20 21:30N 46°51' E 031°59'0 0.0
2018-Feb-20 21:00N 46°51' E 031°59'0 0.0
2018-Feb-20 20:30N 46°51' E 031°59'0 0.0
2018-Feb-20 20:00N 46°51' E 031°59'0 0.0
2018-Feb-20 19:30N 46°51' E 031°59'0 0.0
2018-Feb-20 19:00N 46°51' E 031°59'0 0.0
2018-Feb-20 18:30N 46°51' E 031°59'0 0.0
2018-Feb-20 18:00N 46°51' E 031°59'0 0.0
2018-Feb-20 17:30N 46°51' E 031°59'0 0.0
2018-Feb-20 17:00N 46°51' E 031°59'0 0.0
2018-Feb-20 16:30N 46°51' E 031°59'0 0.0
2018-Feb-20 16:00N 46°51' E 031°59'0 0.0
2018-Feb-20 15:30N 46°51' E 031°59'0 0.0
2018-Feb-20 15:00N 46°51' E 031°59'0 0.0
2018-Feb-20 14:30N 46°51' E 031°59'0 0.0
2018-Feb-20 13:57N 46°51' E 031°59'0 0.0
2018-Feb-20 13:27N 46°51' E 031°59'0 0.0
2018-Feb-20 12:57N 46°51' E 031°59'0 0.0
2018-Feb-20 12:27N 46°51' E 031°59'0 0.0
2018-Feb-20 12:00N 46°51' E 031°59'0 0.0
2018-Feb-20 11:27N 46°51' E 031°59'0 0.0
2018-Feb-20 10:57N 46°51' E 031°59'0 0.0
2018-Feb-20 10:27N 46°51' E 031°59'0 0.0
2018-Feb-20 09:51N 46°51' E 031°59'0 0.0
2018-Feb-20 09:30N 46°51' E 031°59'0 0.0
2018-Feb-20 08:57N 46°51' E 031°59'0 0.0
2018-Feb-20 08:30N 46°51' E 031°59'0 0.0
2018-Feb-20 08:00N 46°51' E 031°59'0 0.0
2018-Feb-20 07:30N 46°51' E 031°59'0 0.0
2018-Feb-20 07:00N 46°51' E 031°59'0 0.0
2018-Feb-20 06:30N 46°51' E 031°59'0 0.0
2018-Feb-20 06:00N 46°51' E 031°59'0 0.0
2018-Feb-20 05:30N 46°51' E 031°59'0 0.0
2018-Feb-20 05:00N 46°51' E 031°59'0 0.0
2018-Feb-20 04:30N 46°51' E 031°59'0 0.0
2018-Feb-20 03:57N 46°51' E 031°59'0 0.0
2018-Feb-20 03:30N 46°51' E 031°59'0 0.0
2018-Feb-20 03:00N 46°51' E 031°59'0 0.0
2018-Feb-20 02:30N 46°51' E 031°59'0 0.0
2018-Feb-20 02:00N 46°51' E 031°59'0 0.0
2018-Feb-20 01:30N 46°51' E 031°59'0 0.0
2018-Feb-20 01:00N 46°51' E 031°59'0 0.0
2018-Feb-20 00:30N 46°51' E 031°59'0 0.0
2018-Feb-20 00:00N 46°51' E 031°59'0 0.0
2018-Feb-19 23:30N 46°51' E 031°59'0 0.0
2018-Feb-19 23:00N 46°51' E 031°59'0 0.0
2018-Feb-19 22:30N 46°51' E 031°59'0 0.0
2018-Feb-19 21:57N 46°51' E 031°59'0 0.0
2018-Feb-19 21:24N 46°51' E 031°59'0 0.0
2018-Feb-19 21:00N 46°51' E 031°59'0 0.0
2018-Feb-19 20:30N 46°51' E 031°59'0 0.0
2018-Feb-19 20:00N 46°51' E 031°59'0 0.0
2018-Feb-19 19:30N 46°51' E 031°59'0 0.0
2018-Feb-19 19:00N 46°51' E 031°59'0 0.0
2018-Feb-19 18:30N 46°51' E 031°59'0 0.0
2018-Feb-19 18:00N 46°51' E 031°59'0 0.0
2018-Feb-19 17:30N 46°51' E 031°59'0 0.0
2018-Feb-19 17:00N 46°51' E 031°59'0 0.0
2018-Feb-19 16:30N 46°51' E 031°59'0 0.0
2018-Feb-19 16:00N 46°51' E 031°59'0 0.0
2018-Feb-19 15:30N 46°51' E 031°59'0 0.0
2018-Feb-19 15:00N 46°51' E 031°59'0 0.0
2018-Feb-19 14:30N 46°51' E 031°59'0 0.0
2018-Feb-19 14:00N 46°51' E 031°59'0 0.0
2018-Feb-19 13:30N 46°51' E 031°59'0 0.0
2018-Feb-19 13:00N 46°51' E 031°59'0 0.0
2018-Feb-19 12:30N 46°51' E 031°59'0 0.0
2018-Feb-19 12:00N 46°51' E 031°59'0 0.0
2018-Feb-19 11:30N 46°51' E 031°59'0 0.0
2018-Feb-19 11:00N 46°51' E 031°59'0 0.0
2018-Feb-19 10:30N 46°51' E 031°59'0 0.0
2018-Feb-19 10:00N 46°51' E 031°59'0 0.0
2018-Feb-19 09:30N 46°51' E 031°59'0 0.0
2018-Feb-19 09:00N 46°51' E 031°59'0 0.0
2018-Feb-19 08:24N 46°51' E 031°59'0 0.0
2018-Feb-19 08:00N 46°51' E 031°59'0 0.0
2018-Feb-19 07:30N 46°51' E 031°59'0 0.0
2018-Feb-19 07:00N 46°51' E 031°59'0 0.0
2018-Feb-19 06:30N 46°51' E 031°59'0 0.0
2018-Feb-19 06:00N 46°51' E 031°59'0 0.0
2018-Feb-19 05:30N 46°51' E 031°59'0 0.0
2018-Feb-19 05:00N 46°51' E 031°59'0 0.0
2018-Feb-19 04:30N 46°51' E 031°59'0 0.0
2018-Feb-19 04:00N 46°51' E 031°59'0 0.0
2018-Feb-19 03:30N 46°51' E 031°59'0 0.0
2018-Feb-19 03:00N 46°51' E 031°59'0 0.0
2018-Feb-19 02:30N 46°51' E 031°59'0 0.0
2018-Feb-19 02:00N 46°51' E 031°59'0 0.0
2018-Feb-19 01:30N 46°51' E 031°59'0 0.0
2018-Feb-19 01:00N 46°51' E 031°59'0 0.0
2018-Feb-19 00:30N 46°51' E 031°59'0 0.0
2018-Feb-19 00:00N 46°51' E 031°59'0 0.0
2018-Feb-18 23:30N 46°51' E 031°59'0 0.0
2018-Feb-18 23:00N 46°51' E 031°59'0 0.7
2018-Feb-18 22:30N 46°52' E 031°58'0 0.0
2018-Feb-18 22:00N 46°52' E 031°58'0 0.0
2018-Feb-18 21:30N 46°52' E 031°58'0 0.0
2018-Feb-18 21:00N 46°52' E 031°58'0 0.0
2018-Feb-18 20:30N 46°52' E 031°58'0 0.0
2018-Feb-18 20:00N 46°52' E 031°58'0 0.0
2018-Feb-18 19:30N 46°52' E 031°58'0 0.0
2018-Feb-18 19:00N 46°52' E 031°58'0 0.1
2018-Feb-18 18:29N 46°52' E 031°58'0 0.1
2018-Feb-18 18:00N 46°51' E 031°58'0 0.1
2018-Feb-18 17:30N 46°51' E 031°58'0 0.0
2018-Feb-18 16:59N 46°51' E 031°58'0 0.1
2018-Feb-18 16:30N 46°51' E 031°58'0 0.1
2018-Feb-18 16:00N 46°52' E 031°58'0 0.3
2018-Feb-18 15:30N 46°52' E 031°58'2 4.3
2018-Feb-18 15:00N 46°50' E 031°56'4 8.1
2018-Feb-18 14:30N 46°46' E 031°53'510.5
2018-Feb-18 14:00N 46°41' E 031°56'510.5
2018-Feb-18 13:30N 46°37' E 031°51'611.4
2018-Feb-18 13:00N 46°36' E 031°44'811.3
2018-Feb-18 12:20N 46°35' E 031°33'2510.9
2018-Feb-18 10:04N 46°33' E 030°57'111.9
2018-Feb-18 10:00N 46°32' E 030°57'10 1.7
2018-Feb-18 04:26N 46°24' E 031°05'0 0.0
2018-Feb-18 01:29N 46°24' E 031°05'0 0.0
2018-Feb-18 00:29N 46°24' E 031°05'0 0.0
2018-Feb-17 23:23N 46°24' E 031°05'0 0.0
2018-Feb-17 21:56N 46°24' E 031°05'0 0.0
2018-Feb-17 21:26N 46°24' E 031°05'0 0.0
2018-Feb-17 19:17N 46°24' E 031°05'0 0.0
2018-Feb-17 17:44N 46°24' E 031°05'0 0.0
2018-Feb-17 06:05N 46°24' E 031°05'0 0.1
2018-Feb-17 05:53N 46°24' E 031°05'0 0.0
2018-Feb-16 03:38N 46°24' E 031°05'6 0.1
2018-Feb-14 08:06N 46°19' E 031°06'  

Dump ship's entire track history